Time;durP1;ratioP1;P1;durP2;ratioP2;P2;SDS_P1;SDS_P2;PMS_P1;PMS_P2;Temp;Humidity;BMP_temperature;BMP_pressure;BME280_temperature;BME280_humidity;BME280_pressure;Samples;Min_cycle;Max_cycle;Signal;HPM_P1;HPM_P2
2024/02/11 00:02:12;;;;;;;13.20;8.43;;;;;12.30;95750.00;;;;5053256;28;20052;-62
2024/02/11 00:04:41;;;;;;;11.38;8.05;;;;;12.30;95753.00;;;;5052779;28;20081;-62
2024/02/11 00:07:08;;;;;;;9.07;7.72;;;;;12.30;95756.00;;;;5052554;28;20612;-62
2024/02/11 00:09:34;;;;;;;17.15;8.32;;;;;12.30;95761.00;;;;5051318;28;20049;-62
2024/02/11 00:12:01;;;;;;;16.15;8.63;;;;;12.30;95763.00;;;;5052673;28;20111;-62
2024/02/11 00:14:27;;;;;;;11.93;7.18;;;;;12.20;95754.00;;;;5052072;28;20110;-62
2024/02/11 00:16:59;;;;;;;12.15;7.53;;;;;12.20;95759.00;;;;5052210;28;20052;-60
2024/02/11 00:19:27;;;;;;;9.48;7.40;;;;;12.30;95751.00;;;;5052577;28;20052;-61
2024/02/11 00:21:53;;;;;;;8.05;6.43;;;;;12.30;95749.00;;;;5052526;28;20053;-62
2024/02/11 00:24:23;;;;;;;8.85;5.80;;;;;12.20;95762.00;;;;5051755;28;20123;-61
2024/02/11 00:26:50;;;;;;;7.55;6.13;;;;;12.20;95764.00;;;;5052057;28;20037;-60
2024/02/11 00:29:18;;;;;;;7.90;6.03;;;;;12.20;95767.00;;;;5052130;28;20045;-61
2024/02/11 00:31:44;;;;;;;6.47;5.65;;;;;12.20;95771.00;;;;5051955;28;20040;-61
2024/02/11 00:34:12;;;;;;;8.27;6.22;;;;;12.10;95769.00;;;;5051400;28;20044;-60
2024/02/11 00:36:40;;;;;;;7.57;5.55;;;;;12.20;95768.00;;;;5050985;28;20037;-61
2024/02/11 00:39:07;;;;;;;6.28;5.30;;;;;12.20;95773.00;;;;5050834;28;20053;-61
2024/02/11 00:41:39;;;;;;;7.60;4.80;;;;;12.20;95760.00;;;;5051781;28;20462;-62
2024/02/11 00:44:08;;;;;;;4.90;4.40;;;;;12.10;95756.00;;;;5050184;28;20150;-62
2024/02/11 00:46:35;;;;;;;8.82;4.82;;;;;12.00;95762.00;;;;5051978;28;20087;-62
2024/02/11 00:49:03;;;;;;;5.95;4.28;;;;;12.00;95766.00;;;;5050641;28;20493;-59
2024/02/11 00:51:30;;;;;;;5.72;4.30;;;;;12.00;95760.00;;;;5051813;28;20482;-61
2024/02/11 00:53:57;;;;;;;4.95;4.13;;;;;12.00;95762.00;;;;5051280;28;20132;-61
2024/02/11 00:56:24;;;;;;;6.22;3.83;;;;;12.00;95767.00;;;;5051862;28;20497;-62
2024/02/11 00:58:50;;;;;;;5.95;3.95;;;;;12.00;95767.00;;;;5051790;28;20094;-62
2024/02/11 01:01:17;;;;;;;5.45;3.25;;;;;12.10;95770.00;;;;5050585;28;20044;-62
2024/02/11 01:03:44;;;;;;;4.63;3.63;;;;;12.00;95771.00;;;;5050997;28;20061;-62
2024/02/11 01:06:12;;;;;;;3.60;3.00;;;;;12.00;95772.00;;;;5051558;28;20045;-62
2024/02/11 01:08:38;;;;;;;2.85;2.63;;;;;11.80;95787.00;;;;5051663;28;20041;-61
2024/02/11 01:11:08;;;;;;;2.65;1.90;;;;;11.70;95786.00;;;;5051695;28;20418;-61
2024/02/11 01:13:35;;;;;;;2.45;2.00;;;;;11.60;95797.00;;;;5050896;28;20582;-61
2024/02/11 01:16:01;;;;;;;1.75;1.60;;;;;11.60;95798.00;;;;5051631;28;20048;-61
2024/02/11 01:18:28;;;;;;;2.00;1.80;;;;;11.50;95797.00;;;;5050273;28;20053;-61
2024/02/11 01:20:55;;;;;;;3.40;2.00;;;;;11.40;95803.00;;;;5050077;28;20044;-62
2024/02/11 01:23:22;;;;;;;1.90;1.80;;;;;11.40;95812.00;;;;5051209;28;20045;-64
2024/02/11 01:25:49;;;;;;;2.28;2.08;;;;;11.30;95813.00;;;;5050999;28;20486;-63
2024/02/11 01:28:16;;;;;;;2.42;2.22;;;;;11.30;95822.00;;;;5051649;28;20053;-61
2024/02/11 01:30:45;;;;;;;2.70;2.50;;;;;11.20;95823.00;;;;5055052;28;20087;-62
2024/02/11 01:33:11;;;;;;;3.60;3.30;;;;;11.00;95826.00;;;;5055156;28;20041;-61
2024/02/11 01:35:41;;;;;;;4.13;3.72;;;;;11.00;95829.00;;;;5053217;28;20131;-61
2024/02/11 01:38:09;;;;;;;4.40;3.00;;;;;10.90;95821.00;;;;5053870;28;20060;-62
2024/02/11 01:40:36;;;;;;;3.20;2.90;;;;;10.80;95835.00;;;;5055046;28;20063;-62
2024/02/11 01:43:09;;;;;;;2.92;2.67;;;;;10.80;95835.00;;;;5054895;28;20059;-61
2024/02/11 01:45:36;;;;;;;3.47;3.15;;;;;10.70;95843.00;;;;5054548;28;20094;-62
2024/02/11 01:48:04;;;;;;;3.58;2.50;;;;;10.60;95840.00;;;;5055197;28;20041;-61
2024/02/11 01:50:34;;;;;;;2.97;2.75;;;;;10.60;95845.00;;;;5055101;28;20044;-62
2024/02/11 01:53:02;;;;;;;3.40;3.10;;;;;10.50;95843.00;;;;5037393;28;20061;-62
2024/02/11 01:55:30;;;;;;;2.97;2.67;;;;;10.50;95846.00;;;;5054232;28;20099;-61
2024/02/11 01:57:58;;;;;;;3.22;2.60;;;;;10.50;95849.00;;;;5053246;28;20055;-62
2024/02/11 02:00:24;;;;;;;2.72;2.40;;;;;10.40;95860.00;;;;5053348;28;20045;-62
2024/02/11 02:02:55;;;;;;;2.40;2.20;;;;;10.30;95851.00;;;;5053647;28;20052;-62
2024/02/11 02:05:21;;;;;;;1.75;1.65;;;;;10.30;95869.00;;;;5054261;28;20410;-60
2024/02/11 02:07:48;;;;;;;1.85;1.73;;;;;10.20;95862.00;;;;5054729;28;20041;-61
2024/02/11 02:10:15;;;;;;;2.47;1.38;;;;;10.10;95847.00;;;;5054835;28;20490;-60
2024/02/11 02:12:42;;;;;;;1.55;1.45;;;;;10.10;95850.00;;;;5054325;28;20112;-60
2024/02/11 02:15:09;;;;;;;1.25;1.00;;;;;10.10;95853.00;;;;5052464;28;20491;-61
2024/02/11 02:17:36;;;;;;;1.38;0.93;;;;;10.10;95855.00;;;;5054466;28;20045;-62
2024/02/11 02:20:04;;;;;;;0.90;0.90;;;;;10.10;95860.00;;;;5053226;28;20045;-62
2024/02/11 02:22:33;;;;;;;0.82;0.82;;;;;10.10;95863.00;;;;5054398;28;20124;-62
2024/02/11 02:24:59;;;;;;;1.05;0.88;;;;;10.10;95868.00;;;;5053662;28;20049;-62
2024/02/11 02:27:26;;;;;;;1.70;1.10;;;;;10.00;95870.00;;;;5053704;28;20055;-61
2024/02/11 02:29:54;;;;;;;1.30;1.20;;;;;9.90;95868.00;;;;5053150;28;20055;-63
2024/02/11 02:32:20;;;;;;;1.40;1.30;;;;;9.90;95868.00;;;;5054352;28;20067;-61
2024/02/11 02:34:47;;;;;;;1.42;1.33;;;;;9.80;95866.00;;;;5052160;28;20088;-62
2024/02/11 02:37:13;;;;;;;1.27;1.17;;;;;9.80;95872.00;;;;5054259;28;20561;-62
2024/02/11 02:39:40;;;;;;;2.75;1.17;;;;;9.80;95868.00;;;;5053592;28;20045;-60
2024/02/11 02:42:08;;;;;;;1.23;1.13;;;;;9.70;95866.00;;;;5053851;28;20086;-61
2024/02/11 02:44:37;;;;;;;2.35;1.42;;;;;9.70;95868.00;;;;5053250;28;20107;-61
2024/02/11 02:47:04;;;;;;;1.48;1.10;;;;;9.70;95875.00;;;;5053717;28;20049;-60
2024/02/11 02:49:32;;;;;;;2.85;1.70;;;;;9.80;95881.00;;;;5053795;28;20430;-61
2024/02/11 02:52:01;;;;;;;1.77;1.17;;;;;9.80;95882.00;;;;5053822;28;20056;-61
2024/02/11 02:54:28;;;;;;;2.10;1.17;;;;;9.80;95882.00;;;;5053076;28;20073;-62
2024/02/11 02:56:55;;;;;;;1.70;1.10;;;;;9.60;95884.00;;;;5053834;28;20486;-62
2024/02/11 02:59:21;;;;;;;1.52;1.20;;;;;9.60;95888.00;;;;5053442;28;20498;-61
2024/02/11 03:01:48;;;;;;;3.25;1.40;;;;;9.50;95887.00;;;;5053465;28;20053;-60
2024/02/11 03:04:16;;;;;;;2.08;1.50;;;;;9.50;95885.00;;;;5052893;28;20083;-60
2024/02/11 03:06:42;;;;;;;1.98;1.15;;;;;9.50;95894.00;;;;5053224;28;20037;-60
2024/02/11 03:09:09;;;;;;;2.80;1.52;;;;;9.60;95895.00;;;;5053272;28;20055;-59
2024/02/11 03:11:39;;;;;;;1.88;1.52;;;;;9.50;95904.00;;;;5052124;28;20130;-61
2024/02/11 03:14:06;;;;;;;4.32;1.60;;;;;9.50;95898.00;;;;5052640;28;20040;-61
2024/02/11 03:16:32;;;;;;;3.90;1.95;;;;;9.50;95903.00;;;;5053310;28;20515;-59
2024/02/11 03:18:59;;;;;;;4.10;1.88;;;;;9.50;95902.00;;;;5051896;28;20106;-61
2024/02/11 03:21:26;;;;;;;1.75;1.63;;;;;9.50;95905.00;;;;5053148;28;20077;-60
2024/02/11 03:23:52;;;;;;;2.10;1.90;;;;;9.50;95913.00;;;;5052470;28;20044;-62
2024/02/11 03:26:19;;;;;;;3.22;2.45;;;;;9.50;95915.00;;;;5051756;28;20053;-62
2024/02/11 03:28:46;;;;;;;2.33;1.88;;;;;9.50;95912.00;;;;5053027;28;20130;-59
2024/02/11 03:31:12;;;;;;;2.90;1.83;;;;;9.50;95933.00;;;;5053141;28;20043;-59
2024/02/11 03:33:39;;;;;;;2.20;2.00;;;;;9.40;95926.00;;;;5051094;28;20136;-60
2024/02/11 03:36:06;;;;;;;6.10;2.10;;;;;9.40;95928.00;;;;5052725;28;20123;-60
2024/02/11 03:38:32;;;;;;;4.50;2.53;;;;;9.40;95923.00;;;;5052982;28;20490;-61
2024/02/11 03:40:59;;;;;;;5.72;2.13;;;;;9.40;95925.00;;;;5052735;28;20099;-61
2024/02/11 03:43:26;;;;;;;3.75;2.25;;;;;9.30;95922.00;;;;5050721;28;20049;-62
2024/02/11 03:45:52;;;;;;;3.05;2.45;;;;;9.30;95937.00;;;;5052944;28;20045;-62
2024/02/11 03:48:19;;;;;;;3.25;2.08;;;;;9.30;95949.00;;;;5051342;28;20045;-61
2024/02/11 03:50:46;;;;;;;4.22;2.50;;;;;9.30;95946.00;;;;5051034;28;20068;-62
2024/02/11 03:53:14;;;;;;;2.63;2.28;;;;;9.40;95956.00;;;;5052184;28;20511;-62
2024/02/11 03:55:41;;;;;;;4.03;2.42;;;;;9.30;95946.00;;;;5052329;28;20483;-62
2024/02/11 03:58:08;;;;;;;4.60;2.67;;;;;9.30;95953.00;;;;5051369;28;20061;-62
2024/02/11 04:00:35;;;;;;;5.75;2.78;;;;;9.30;95955.00;;;;5052532;28;20124;-61
2024/02/11 04:03:02;;;;;;;4.35;2.50;;;;;9.30;95958.00;;;;5051214;28;20057;-62
2024/02/11 04:05:28;;;;;;;5.55;3.17;;;;;9.30;95963.00;;;;5051870;28;20056;-62
2024/02/11 04:07:56;;;;;;;5.32;3.10;;;;;9.30;95971.00;;;;5052245;28;20048;-62
2024/02/11 04:10:28;;;;;;;5.22;3.40;;;;;9.30;95960.00;;;;5052434;28;20041;-62
2024/02/11 04:12:56;;;;;;;5.75;2.90;;;;;9.30;95970.00;;;;5051193;28;20044;-61
2024/02/11 04:15:27;;;;;;;6.28;3.30;;;;;9.20;95974.00;;;;5051568;28;20048;-60
2024/02/11 04:17:56;;;;;;;7.07;3.42;;;;;9.20;95965.00;;;;5051196;28;20045;-61
2024/02/11 04:20:26;;;;;;;6.22;3.17;;;;;9.20;95972.00;;;;5050592;28;20040;-60
2024/02/11 04:22:58;;;;;;;5.70;3.25;;;;;9.10;95980.00;;;;5052090;28;20060;-60
2024/02/11 04:25:30;;;;;;;4.53;3.50;;;;;9.00;95967.00;;;;5051714;28;20037;-61
2024/02/11 04:27:57;;;;;;;7.57;3.13;;;;;9.00;95970.00;;;;5050605;28;20118;-61
2024/02/11 04:30:27;;;;;;;10.07;4.35;;;;;9.10;95972.00;;;;5051810;28;20560;-60
2024/02/11 04:32:54;;;;;;;6.80;3.95;;;;;9.10;95967.00;;;;5050926;28;20060;-60
2024/02/11 04:35:24;;;;;;;5.18;3.72;;;;;9.10;95974.00;;;;5051565;28;20052;-61
2024/02/11 04:37:55;;;;;;;5.97;3.97;;;;;9.10;95970.00;;;;5050850;28;20045;-60
2024/02/11 04:40:24;;;;;;;5.55;4.63;;;;;9.00;95977.00;;;;5050639;28;20053;-61
2024/02/11 04:42:56;;;;;;;7.20;4.65;;;;;9.10;95970.00;;;;5051734;28;20137;-60
2024/02/11 04:45:25;;;;;;;8.65;4.65;;;;;9.00;95974.00;;;;5051335;28;20041;-60
2024/02/11 04:47:59;;;;;;;8.70;5.22;;;;;9.00;95970.00;;;;5051984;28;20406;-59
2024/02/11 04:50:27;;;;;;;13.23;5.63;;;;;9.00;95966.00;;;;5051942;28;20123;-59
2024/02/11 04:52:56;;;;;;;8.50;5.72;;;;;9.10;95966.00;;;;5052082;28;20417;-61
2024/02/11 04:55:28;;;;;;;9.25;5.32;;;;;9.10;95972.00;;;;5051426;28;20077;-61
2024/02/11 04:57:58;;;;;;;9.15;5.13;;;;;9.20;95977.00;;;;5051898;28;20041;-60
2024/02/11 05:00:27;;;;;;;8.15;5.57;;;;;9.10;95976.00;;;;5051722;28;20451;-60
2024/02/11 05:02:55;;;;;;;8.77;5.47;;;;;9.10;95980.00;;;;5051716;28;20048;-59
2024/02/11 05:05:31;;;;;;;9.00;5.80;;;;;9.10;95978.00;;;;5055258;28;20498;-60
2024/02/11 05:08:03;;;;;;;8.57;5.53;;;;;9.10;95972.00;;;;5055707;28;20067;-61
2024/02/11 05:10:34;;;;;;;10.00;5.22;;;;;9.10;95985.00;;;;5055655;28;20072;-60
2024/02/11 05:13:04;;;;;;;13.48;6.70;;;;;9.00;95983.00;;;;5055600;28;20110;-58
2024/02/11 05:15:32;;;;;;;12.13;6.20;;;;;9.00;95967.00;;;;5055199;28;20048;-60
2024/02/11 05:18:00;;;;;;;10.15;6.60;;;;;9.00;95977.00;;;;5055546;28;20048;-61
2024/02/11 05:20:28;;;;;;;9.25;6.93;;;;;9.10;95981.00;;;;5055370;28;20497;-61
2024/02/11 05:22:56;;;;;;;11.95;6.10;;;;;9.10;95991.00;;;;5055418;28;20079;-61
2024/02/11 05:25:25;;;;;;;7.40;5.90;;;;;9.10;95987.00;;;;5055157;28;20402;-61
2024/02/11 05:27:58;;;;;;;10.27;7.22;;;;;9.00;95984.00;;;;5055246;28;20037;-60
2024/02/11 05:30:32;;;;;;;9.75;6.50;;;;;9.10;95992.00;;;;5055246;28;20067;-61
2024/02/11 05:33:02;;;;;;;12.27;6.72;;;;;9.10;95993.00;;;;5055361;28;20045;-59
2024/02/11 05:35:29;;;;;;;11.63;7.35;;;;;9.10;95994.00;;;;5054619;28;20041;-59
2024/02/11 05:37:59;;;;;;;12.40;7.25;;;;;9.10;95991.00;;;;5055225;28;20044;-60
2024/02/11 05:40:27;;;;;;;14.38;7.78;;;;;9.10;95989.00;;;;5055052;28;20464;-58
2024/02/11 05:42:55;;;;;;;12.43;7.10;;;;;9.10;95993.00;;;;5055063;28;20048;-59
2024/02/11 05:45:22;;;;;;;14.48;6.80;;;;;9.10;95992.00;;;;5054394;28;20128;-60
2024/02/11 05:47:53;;;;;;;10.65;6.28;;;;;9.10;95988.00;;;;5054936;28;20112;-60
2024/02/11 05:50:21;;;;;;;11.88;7.15;;;;;9.10;96010.00;;;;5054737;28;20045;-60
2024/02/11 05:52:48;;;;;;;10.30;7.20;;;;;9.10;96012.00;;;;5055130;28;20410;-61
2024/02/11 05:55:18;;;;;;;7.95;6.18;;;;;9.10;96009.00;;;;5054844;28;20486;-60
2024/02/11 05:57:47;;;;;;;12.15;6.72;;;;;9.10;96008.00;;;;5054725;28;20044;-61
2024/02/11 06:00:16;;;;;;;16.10;6.90;;;;;9.10;96012.00;;;;5054849;28;20068;-61
2024/02/11 06:02:47;;;;;;;10.02;6.75;;;;;9.10;96013.00;;;;5054688;28;20044;-61
2024/02/11 06:05:14;;;;;;;10.30;6.70;;;;;9.10;96010.00;;;;5054037;28;20041;-60
2024/02/11 06:07:51;;;;;;;19.98;9.13;;;;;9.00;96019.00;;;;5054595;28;20452;-60
2024/02/11 06:10:19;;;;;;;13.20;7.40;;;;;9.00;96018.00;;;;5054973;28;20048;-61
2024/02/11 06:12:46;;;;;;;16.33;7.72;;;;;9.10;96025.00;;;;5054720;28;20351;-61
2024/02/11 06:15:15;;;;;;;11.18;7.10;;;;;9.10;96027.00;;;;5053147;28;20055;-60
2024/02/11 06:17:43;;;;;;;16.55;7.35;;;;;9.10;96040.00;;;;5054464;28;20041;-59
2024/02/11 06:20:13;;;;;;;13.35;7.50;;;;;9.10;96041.00;;;;5053277;28;20049;-62
2024/02/11 06:22:42;;;;;;;10.95;7.05;;;;;9.10;96036.00;;;;5054459;28;20051;-61
2024/02/11 06:25:09;;;;;;;16.98;7.82;;;;;9.10;96033.00;;;;5053629;28;20103;-59
2024/02/11 06:27:39;;;;;;;17.23;7.70;;;;;9.10;96030.00;;;;5054046;28;20036;-60
2024/02/11 06:30:13;;;;;;;11.35;7.25;;;;;9.00;96038.00;;;;5054273;28;20470;-60
2024/02/11 06:32:42;;;;;;;14.65;7.43;;;;;9.10;96056.00;;;;5054187;28;20048;-60
2024/02/11 06:35:09;;;;;;;10.43;6.65;;;;;9.10;96060.00;;;;5053465;28;20047;-61
2024/02/11 06:37:40;;;;;;;13.52;7.28;;;;;9.10;96070.00;;;;5054084;28;20120;-59
2024/02/11 06:40:12;;;;;;;8.30;7.03;;;;;9.10;96071.00;;;;5054167;28;20060;-59
2024/02/11 06:42:39;;;;;;;10.57;6.32;;;;;9.10;96074.00;;;;5052879;28;20049;-59
2024/02/11 06:45:08;;;;;;;10.70;7.00;;;;;9.20;96079.00;;;;5053625;28;20041;-59
2024/02/11 06:47:36;;;;;;;13.35;7.00;;;;;9.10;96071.00;;;;5053903;28;20128;-60
2024/02/11 06:50:04;;;;;;;13.85;6.82;;;;;9.10;96071.00;;;;5052858;28;20055;-58
2024/02/11 06:52:31;;;;;;;14.80;7.32;;;;;9.10;96077.00;;;;5053971;28;20049;-60
2024/02/11 06:54:58;;;;;;;13.05;6.95;;;;;9.10;96078.00;;;;5053625;28;20123;-61
2024/02/11 06:57:25;;;;;;;14.00;7.75;;;;;9.20;96086.00;;;;5053932;28;20064;-60
2024/02/11 06:59:52;;;;;;;13.60;6.63;;;;;9.20;96087.00;;;;5054001;28;20092;-58
2024/02/11 07:02:20;;;;;;;10.13;6.50;;;;;9.20;96090.00;;;;5054110;28;20045;-60
2024/02/11 07:04:47;;;;;;;13.52;6.95;;;;;9.20;96104.00;;;;5053108;28;20068;-60
2024/02/11 07:07:13;;;;;;;10.98;6.78;;;;;9.20;96100.00;;;;5053204;28;20465;-59
2024/02/11 07:09:41;;;;;;;9.65;6.65;;;;;9.20;96100.00;;;;5053598;28;20047;-59
2024/02/11 07:12:07;;;;;;;14.48;6.95;;;;;9.30;96115.00;;;;5052449;28;20056;-60
2024/02/11 07:14:34;;;;;;;13.73;7.20;;;;;9.30;96107.00;;;;5053010;28;20045;-59
2024/02/11 07:17:01;;;;;;;10.50;5.95;;;;;9.20;96114.00;;;;5053719;28;20049;-60
2024/02/11 07:19:28;;;;;;;13.90;7.22;;;;;9.20;96116.00;;;;5052178;28;20143;-59
2024/02/11 07:21:55;;;;;;;8.73;6.82;;;;;9.30;96121.00;;;;5053925;28;20103;-61
2024/02/11 07:24:22;;;;;;;14.55;8.50;;;;;9.40;96117.00;;;;5052769;28;20053;-59
2024/02/11 07:26:49;;;;;;;11.00;6.75;;;;;9.40;96122.00;;;;5052068;28;20072;-58
2024/02/11 07:29:18;;;;;;;12.35;6.63;;;;;9.30;96125.00;;;;5052818;28;20043;-61
2024/02/11 07:31:45;;;;;;;11.55;7.30;;;;;9.30;96126.00;;;;5053073;28;20049;-58
2024/02/11 07:34:12;;;;;;;11.80;6.70;;;;;9.30;96129.00;;;;5052481;28;20482;-61
2024/02/11 07:36:42;;;;;;;13.77;7.22;;;;;9.40;96138.00;;;;5052971;28;20040;-62
2024/02/11 07:39:08;;;;;;;14.00;6.35;;;;;9.40;96131.00;;;;5052835;28;20041;-63
2024/02/11 07:41:35;;;;;;;12.95;6.90;;;;;9.40;96137.00;;;;5052734;28;20556;-61
2024/02/11 07:44:02;;;;;;;10.95;7.00;;;;;9.40;96133.00;;;;5052180;28;20045;-60
2024/02/11 07:46:29;;;;;;;14.60;6.85;;;;;9.40;96127.00;;;;5052680;28;20053;-61
2024/02/11 07:49:03;;;;;;;11.98;7.05;;;;;9.40;96139.00;;;;5052716;28;20464;-61
2024/02/11 07:51:30;;;;;;;18.50;7.28;;;;;9.50;96139.00;;;;5052798;28;20072;-60
2024/02/11 07:53:57;;;;;;;11.77;7.15;;;;;9.50;96143.00;;;;5052150;28;20045;-61
2024/02/11 07:56:25;;;;;;;11.48;7.18;;;;;9.50;96144.00;;;;5052612;28;20041;-62
2024/02/11 07:58:52;;;;;;;10.65;6.45;;;;;9.50;96144.00;;;;5052578;28;20045;-61
2024/02/11 08:01:19;;;;;;;12.18;6.60;;;;;9.50;96152.00;;;;5052399;28;20095;-61
2024/02/11 08:03:47;;;;;;;10.38;5.93;;;;;9.50;96157.00;;;;5051908;28;20123;-62
2024/02/11 08:06:14;;;;;;;9.60;5.93;;;;;9.50;96164.00;;;;5052356;28;20051;-61
2024/02/11 08:08:41;;;;;;;9.73;6.00;;;;;9.40;96153.00;;;;5052386;28;20041;-61
2024/02/11 08:11:08;;;;;;;9.57;5.85;;;;;9.40;96166.00;;;;5052229;28;20057;-61
2024/02/11 08:13:34;;;;;;;9.43;6.00;;;;;9.40;96167.00;;;;5051784;28;20041;-59
2024/02/11 08:16:03;;;;;;;10.57;5.93;;;;;9.40;96162.00;;;;5052158;28;20044;-62
2024/02/11 08:18:30;;;;;;;15.60;6.60;;;;;9.30;96162.00;;;;5052121;28;20051;-62
2024/02/11 08:20:57;;;;;;;9.45;5.78;;;;;9.40;96160.00;;;;5052458;28;20040;-60
2024/02/11 08:23:27;;;;;;;11.75;6.00;;;;;9.40;96170.00;;;;5050640;28;20425;-62
2024/02/11 08:25:55;;;;;;;8.13;6.15;;;;;9.50;96168.00;;;;5050935;28;20041;-62
2024/02/11 08:28:22;;;;;;;9.63;5.78;;;;;9.50;96171.00;;;;5051004;28;20056;-61
2024/02/11 08:30:48;;;;;;;8.80;5.30;;;;;9.60;96172.00;;;;5051111;28;20045;-60
2024/02/11 08:33:15;;;;;;;8.60;5.70;;;;;9.60;96179.00;;;;5052103;28;20045;-61
2024/02/11 08:35:46;;;;;;;9.30;5.65;;;;;9.80;96171.00;;;;5050174;28;20065;-61
2024/02/11 08:38:13;;;;;;;10.02;5.30;;;;;9.80;96166.00;;;;5051383;28;20065;-62
2024/02/11 08:40:40;;;;;;;7.75;5.07;;;;;9.90;96167.00;;;;5051986;28;20044;-61
2024/02/11 08:43:07;;;;;;;8.23;4.53;;;;;9.90;96172.00;;;;5052045;28;20595;-59
2024/02/11 08:45:33;;;;;;;5.93;5.20;;;;;9.80;96166.00;;;;5051810;28;20053;-62
2024/02/11 08:48:00;;;;;;;6.68;5.18;;;;;9.80;96173.00;;;;5051801;28;20068;-61
2024/02/11 08:50:27;;;;;;;7.63;5.05;;;;;9.90;96179.00;;;;5051795;28;20412;-62
2024/02/11 08:52:55;;;;;;;8.70;6.03;;;;;9.90;96178.00;;;;5051761;28;20453;-63
2024/02/11 08:55:21;;;;;;;8.25;5.43;;;;;9.90;96190.00;;;;5051383;28;20045;-61
2024/02/11 08:57:48;;;;;;;9.35;5.63;;;;;9.90;96190.00;;;;5051833;28;20395;-62
2024/02/11 09:00:16;;;;;;;11.30;5.53;;;;;9.90;96195.00;;;;5052058;28;20118;-62
2024/02/11 09:02:43;;;;;;;8.18;5.15;;;;;10.00;96192.00;;;;5052128;28;20457;-62
2024/02/11 09:05:10;;;;;;;5.75;4.55;;;;;10.00;96198.00;;;;5051594;28;20045;-61
2024/02/11 09:07:42;;;;;;;8.93;5.35;;;;;10.00;96195.00;;;;5051844;28;20041;-62
2024/02/11 09:10:09;;;;;;;7.47;5.45;;;;;10.00;96205.00;;;;5051859;28;20387;-61
2024/02/11 09:12:36;;;;;;;9.70;5.93;;;;;10.00;96214.00;;;;5051645;28;20041;-62
2024/02/11 09:15:03;;;;;;;9.43;6.03;;;;;10.10;96205.00;;;;5051124;28;20045;-62
2024/02/11 09:17:32;;;;;;;7.82;5.50;;;;;10.20;96205.00;;;;5051661;28;20037;-63
2024/02/11 09:20:00;;;;;;;12.73;6.07;;;;;10.30;96203.00;;;;5051810;28;20043;-63
2024/02/11 09:22:27;;;;;;;9.32;5.97;;;;;10.30;96206.00;;;;5051608;28;20048;-64
2024/02/11 09:24:54;;;;;;;10.98;5.20;;;;;10.30;96215.00;;;;5050968;28;20051;-64
2024/02/11 09:27:21;;;;;;;10.35;5.72;;;;;10.20;96217.00;;;;5051504;28;20052;-62
2024/02/11 09:29:48;;;;;;;11.65;5.28;;;;;10.30;96213.00;;;;5051486;28;20041;-62
2024/02/11 09:32:16;;;;;;;9.63;5.78;;;;;10.40;96211.00;;;;5051377;28;20064;-62
2024/02/11 09:34:43;;;;;;;9.70;5.25;;;;;10.50;96211.00;;;;5050879;28;20048;-63
2024/02/11 09:37:10;;;;;;;9.32;5.15;;;;;10.60;96216.00;;;;5051467;28;20375;-62
2024/02/11 09:39:37;;;;;;;7.40;4.85;;;;;10.60;96220.00;;;;5051231;28;20052;-62
2024/02/11 09:42:04;;;;;;;8.23;4.82;;;;;10.50;96216.00;;;;5051250;28;20044;-63
2024/02/11 09:44:33;;;;;;;7.68;5.13;;;;;10.50;96216.00;;;;5050541;28;20482;-63
2024/02/11 09:47:02;;;;;;;9.40;4.28;;;;;10.60;96212.00;;;;5050147;28;20048;-64
2024/02/11 09:49:31;;;;;;;6.95;4.35;;;;;10.60;96215.00;;;;5051515;28;20159;-62
2024/02/11 09:52:00;;;;;;;7.15;4.22;;;;;10.50;96219.00;;;;5055108;28;20090;-61
2024/02/11 09:54:31;;;;;;;6.32;3.95;;;;;10.40;96231.00;;;;5054417;28;20051;-62
2024/02/11 09:56:58;;;;;;;7.78;5.60;;;;;10.30;96229.00;;;;5055070;28;20057;-62
2024/02/11 09:59:27;;;;;;;7.07;4.60;;;;;10.30;96235.00;;;;5055034;28;20512;-62
2024/02/11 10:01:56;;;;;;;6.72;4.28;;;;;10.40;96241.00;;;;5055102;28;20044;-65
2024/02/11 10:04:28;;;;;;;7.22;4.10;;;;;10.40;96246.00;;;;5054307;28;20077;-63
2024/02/11 10:06:56;;;;;;;5.18;3.05;;;;;10.40;96253.00;;;;5054996;28;20048;-61
2024/02/11 10:09:23;;;;;;;5.28;4.10;;;;;10.40;96257.00;;;;5054600;28;20041;-61
2024/02/11 10:11:50;;;;;;;5.70;3.97;;;;;10.50;96259.00;;;;5054533;28;20041;-61
2024/02/11 10:14:18;;;;;;;12.45;7.55;;;;;10.50;96264.00;;;;5053973;28;20073;-63
2024/02/11 10:16:46;;;;;;;6.07;4.00;;;;;10.50;96263.00;;;;5054734;28;20040;-62
2024/02/11 10:19:13;;;;;;;10.80;5.72;;;;;10.60;96258.00;;;;5054459;28;20037;-62
2024/02/11 10:21:43;;;;;;;7.80;4.53;;;;;10.80;96260.00;;;;5054460;28;20132;-62
2024/02/11 10:24:10;;;;;;;7.20;4.20;;;;;10.90;96268.00;;;;5052492;28;20044;-62
2024/02/11 10:26:37;;;;;;;9.52;4.78;;;;;11.00;96271.00;;;;5054355;28;20053;-62
2024/02/11 10:29:04;;;;;;;8.45;4.20;;;;;10.90;96274.00;;;;5054348;28;20055;-62
2024/02/11 10:31:31;;;;;;;6.63;3.92;;;;;10.80;96267.00;;;;5054305;28;20045;-62
2024/02/11 10:33:58;;;;;;;5.45;3.88;;;;;10.80;96276.00;;;;5053685;28;20102;-62
2024/02/11 10:36:26;;;;;;;9.48;5.07;;;;;10.90;96275.00;;;;5054436;28;20110;-61
2024/02/11 10:38:54;;;;;;;7.18;3.70;;;;;11.00;96282.00;;;;5054444;28;20083;-61
2024/02/11 10:41:22;;;;;;;6.60;3.80;;;;;11.10;96288.00;;;;5054581;28;20080;-61
2024/02/11 10:43:51;;;;;;;5.70;3.30;;;;;11.10;96283.00;;;;5052741;28;20522;-61
2024/02/11 10:46:22;;;;;;;7.72;4.40;;;;;11.20;96276.00;;;;5053176;28;20049;-63
2024/02/11 10:48:50;;;;;;;5.22;3.58;;;;;11.40;96289.00;;;;5053431;28;20048;-65
2024/02/11 10:51:23;;;;;;;7.30;3.95;;;;;11.40;96285.00;;;;5054067;28;20132;-63
2024/02/11 10:54:01;;;;;;;10.23;3.92;;;;;11.40;96291.00;;;;5053345;28;20069;-62
2024/02/11 10:56:28;;;;;;;6.75;3.85;;;;;11.40;96288.00;;;;5053826;28;20406;-63
2024/02/11 10:59:08;;;;;;;9.75;4.80;;;;;11.30;96288.00;;;;5053920;28;20064;-62
2024/02/11 11:01:39;;;;;;;10.30;4.18;;;;;11.40;96282.00;;;;5053526;28;20042;-64
2024/02/11 11:04:11;;;;;;;6.68;4.15;;;;;11.60;96280.00;;;;5053323;28;20131;-62
2024/02/11 11:06:41;;;;;;;10.07;4.07;;;;;11.60;96279.00;;;;5053869;28;20120;-62
2024/02/11 11:09:09;;;;;;;6.50;3.75;;;;;11.60;96278.00;;;;5053554;28;20295;-60
2024/02/11 11:11:36;;;;;;;9.70;4.03;;;;;11.70;96277.00;;;;5052279;28;20045;-63
2024/02/11 11:14:09;;;;;;;5.32;3.55;;;;;11.80;96279.00;;;;5051731;28;20049;-61
2024/02/11 11:16:42;;;;;;;4.28;3.28;;;;;11.90;96284.00;;;;5053545;28;20053;-61
2024/02/11 11:19:14;;;;;;;4.95;3.03;;;;;11.90;96285.00;;;;5053692;28;20048;-62
2024/02/11 11:21:51;;;;;;;6.40;3.47;;;;;11.90;96282.00;;;;5053217;28;20107;-62
2024/02/11 11:24:18;;;;;;;8.77;3.22;;;;;11.90;96277.00;;;;5052798;28;20052;-63
2024/02/11 11:26:52;;;;;;;7.45;3.47;;;;;12.10;96279.00;;;;5053093;28;20049;-62
2024/02/11 11:29:19;;;;;;;;;;;;;12.10;96282.00;;;;5053913;28;20072;-62
2024/02/11 11:31:47;;;;;;;8.00;3.38;;;;;11.90;96286.00;;;;5053457;28;19920;-63
2024/02/11 11:34:17;;;;;;;5.03;2.92;;;;;11.70;96292.00;;;;5052770;28;20123;-62
2024/02/11 11:36:43;;;;;;;6.60;3.08;;;;;11.60;96282.00;;;;5053221;28;20376;-64
2024/02/11 11:39:11;;;;;;;4.43;2.85;;;;;11.50;96298.00;;;;5053267;28;20040;-63
2024/02/11 11:41:38;;;;;;;7.60;3.67;;;;;11.50;96280.00;;;;5052960;28;20079;-65
2024/02/11 11:44:05;;;;;;;4.53;3.05;;;;;11.40;96287.00;;;;5051045;28;20049;-65
2024/02/11 11:46:32;;;;;;;7.97;3.78;;;;;11.30;96293.00;;;;5053489;28;20390;-64
2024/02/11 11:48:59;;;;;;;5.38;3.28;;;;;11.30;96290.00;;;;5052302;28;20490;-62
2024/02/11 11:51:30;;;;;;;10.57;3.20;;;;;11.30;96298.00;;;;5053415;28;20045;-64
2024/02/11 11:54:03;;;;;;;6.97;3.40;;;;;11.30;96298.00;;;;5052131;28;20056;-63
2024/02/11 11:56:29;;;;;;;10.80;4.55;;;;;11.30;96297.00;;;;5053213;28;20044;-63
2024/02/11 11:59:04;;;;;;;7.88;3.75;;;;;11.30;96309.00;;;;5036832;28;20045;-65
2024/02/11 12:01:32;;;;;;;10.52;4.18;;;;;11.30;96294.00;;;;5051584;28;20448;-63
2024/02/11 12:03:59;;;;;;;8.38;3.28;;;;;11.30;96297.00;;;;5051288;28;20052;-61
2024/02/11 12:06:26;;;;;;;4.93;3.50;;;;;11.50;96301.00;;;;5051889;28;20077;-63
2024/02/11 12:08:53;;;;;;;6.32;3.10;;;;;11.50;96287.00;;;;5052602;28;20045;-63
2024/02/11 12:11:20;;;;;;;8.25;2.95;;;;;11.60;96289.00;;;;5052423;28;20048;-64
2024/02/11 12:13:47;;;;;;;6.78;3.85;;;;;11.60;96302.00;;;;5051767;28;20045;-64
2024/02/11 12:16:17;;;;;;;7.55;3.50;;;;;11.70;96298.00;;;;5053034;28;20051;-65
2024/02/11 12:18:44;;;;;;;8.48;2.58;;;;;11.70;96295.00;;;;5051460;28;20049;-61
2024/02/11 12:21:11;;;;;;;4.60;3.03;;;;;11.70;96299.00;;;;5052484;28;20068;-63
2024/02/11 12:23:38;;;;;;;6.85;3.00;;;;;11.80;96296.00;;;;5052062;28;20083;-63
2024/02/11 12:26:07;;;;;;;6.63;2.78;;;;;11.80;96289.00;;;;5052185;28;20049;-61